createdAt,value
2023-02-15T00:00:15.008Z,2.32
2023-02-15T00:01:17.619Z,2.33
2023-02-15T00:02:20.831Z,1.99
2023-02-15T00:03:22.798Z,2.18
2023-02-15T00:04:46.955Z,2.01
2023-02-15T00:05:48.553Z,2.08
2023-02-15T00:06:51.627Z,2.24
2023-02-15T00:07:53.283Z,2.12
2023-02-15T00:08:56.573Z,2.17
2023-02-15T00:09:58.615Z,2.20
2023-02-15T00:11:08.434Z,2.26
2023-02-15T00:12:11.017Z,2.22
2023-02-15T00:13:14.980Z,2.18
2023-02-15T00:14:18.751Z,2.16
2023-02-15T00:15:21.266Z,2.22
2023-02-15T00:16:22.957Z,1.99
2023-02-15T00:17:26.823Z,1.77
2023-02-15T00:18:28.393Z,1.94
2023-02-15T00:19:31.591Z,1.93
2023-02-15T00:20:33.385Z,2.03
2023-02-15T00:21:37.643Z,2.15
2023-02-15T00:22:39.526Z,2.08
2023-02-15T00:23:42.166Z,2.14
2023-02-15T00:24:43.832Z,2.20
2023-02-15T00:25:46.408Z,2.27
2023-02-15T00:26:48.684Z,2.14
2023-02-15T00:27:51.508Z,1.79
2023-02-15T00:28:55.373Z,1.63
2023-02-15T00:29:58.061Z,1.71
2023-02-15T00:31:05.065Z,1.09
2023-02-15T00:32:07.967Z,1.13
2023-02-15T00:33:09.599Z,0.97
2023-02-15T00:34:14.734Z,1.26
2023-02-15T00:35:16.698Z,1.14
2023-02-15T00:36:19.503Z,1.19
2023-02-15T00:37:21.156Z,1.45
2023-02-15T00:38:23.821Z,1.14
2023-02-15T00:39:25.558Z,1.29
2023-02-15T00:40:28.202Z,0.98
2023-02-15T00:41:30.102Z,1.14
2023-02-15T00:42:32.827Z,1.30
2023-02-15T00:43:35.549Z,1.54
2023-02-15T00:44:39.554Z,1.63
2023-02-15T00:45:41.432Z,1.16
2023-02-15T00:46:44.349Z,1.34
2023-02-15T00:47:46.252Z,1.51
2023-02-15T00:48:49.114Z,1.61
2023-02-15T00:49:50.784Z,1.74
2023-02-15T00:50:57.186Z,1.75
2023-02-15T00:51:58.787Z,1.58
2023-02-15T00:53:04.055Z,1.68
2023-02-15T00:54:06.244Z,1.74
2023-02-15T00:55:09.319Z,1.65
2023-02-15T00:56:11.028Z,1.54
2023-02-15T00:57:13.585Z,1.66
2023-02-15T00:58:16.064Z,1.54
2023-02-15T00:59:19.708Z,1.49
2023-02-15T01:00:22.739Z,1.36
2023-02-15T01:01:26.819Z,1.52
2023-02-15T01:02:29.271Z,1.49
2023-02-15T01:03:31.920Z,1.68
2023-02-15T01:04:33.600Z,1.76
2023-02-15T01:05:36.330Z,1.72
2023-02-15T01:06:38.042Z,1.78
2023-02-15T01:07:40.904Z,1.76
2023-02-15T01:08:42.630Z,1.93
2023-02-15T01:09:45.121Z,1.93
2023-02-15T01:10:48.145Z,1.83
2023-02-15T01:11:51.195Z,1.58
2023-02-15T01:12:53.445Z,1.25
2023-02-15T01:13:58.121Z,1.14
2023-02-15T01:15:00.040Z,1.39
2023-02-15T01:16:05.448Z,1.55
2023-02-15T01:17:07.235Z,1.66
2023-02-15T01:18:10.017Z,1.70
2023-02-15T01:19:11.702Z,1.68
2023-02-15T01:20:16.052Z,1.85
2023-02-15T01:21:20.809Z,1.73
2023-02-15T01:22:23.502Z,1.80
2023-02-15T01:23:25.230Z,1.83
2023-02-15T01:24:27.855Z,1.77
2023-02-15T01:25:29.406Z,1.86
2023-02-15T01:26:31.939Z,1.92
2023-02-15T01:27:33.611Z,1.90
2023-02-15T01:28:36.761Z,1.87
2023-02-15T01:29:38.404Z,1.84
2023-02-15T01:30:41.257Z,1.88
2023-02-15T01:31:44.492Z,1.76
2023-02-15T01:32:47.252Z,1.59
2023-02-15T01:33:50.569Z,1.70
2023-02-15T01:34:52.150Z,1.50
2023-02-15T01:35:59.788Z,1.46
2023-02-15T01:37:01.845Z,1.16
2023-02-15T01:38:04.563Z,1.10
2023-02-15T01:39:06.182Z,1.29
2023-02-15T01:40:13.480Z,1.28
2023-02-15T01:41:21.045Z,1.39
2023-02-15T01:42:26.527Z,1.46
2023-02-15T01:43:41.350Z,1.31
2023-02-15T01:44:50.590Z,1.47
2023-02-15T01:45:53.686Z,1.52
2023-02-15T01:46:56.711Z,1.40
2023-02-15T01:48:05.344Z,1.24
2023-02-15T01:49:12.702Z,1.27
2023-02-15T01:50:19.980Z,1.19
2023-02-15T01:51:24.699Z,1.30
2023-02-15T01:52:27.890Z,1.38
2023-02-15T01:53:36.926Z,1.42
2023-02-15T01:54:42.939Z,1.37
2023-02-15T01:55:48.369Z,1.42
2023-02-15T01:56:50.956Z,1.23
2023-02-15T01:57:52.920Z,1.04
2023-02-15T01:58:59.081Z,1.10
2023-02-15T02:00:04.756Z,1.02
2023-02-15T02:01:10.502Z,0.88
2023-02-15T02:02:15.857Z,0.87
2023-02-15T02:03:18.949Z,0.94
2023-02-15T02:04:27.386Z,1.10
2023-02-15T02:05:31.151Z,1.14
2023-02-15T02:06:34.441Z,1.12
2023-02-15T02:07:40.694Z,1.16
2023-02-15T02:08:43.165Z,1.18
2023-02-15T02:09:46.978Z,1.27
2023-02-15T02:10:48.561Z,1.37
2023-02-15T02:11:55.108Z,1.33
2023-02-15T02:13:00.788Z,1.28
2023-02-15T02:14:03.608Z,1.21
2023-02-15T02:15:06.856Z,1.19
2023-02-15T02:16:16.214Z,1.24
2023-02-15T02:17:24.530Z,1.23
2023-02-15T02:18:41.076Z,1.08
2023-02-15T02:20:27.470Z,1.25
2023-02-15T02:22:06.424Z,1.24
2023-02-15T02:23:29.231Z,1.30
2023-02-15T02:24:58.006Z,1.14
2023-02-15T02:26:39.944Z,1.20
2023-02-15T02:27:47.072Z,1.15
2023-02-15T02:29:23.766Z,1.19
2023-02-15T02:31:20.675Z,1.30
2023-02-15T02:32:53.988Z,1.11
2023-02-15T02:34:06.820Z,0.97
2023-02-15T02:35:14.165Z,0.90
2023-02-15T02:36:26.556Z,0.80
2023-02-15T02:37:35.536Z,0.70
2023-02-15T02:38:52.188Z,0.82
2023-02-15T02:40:05.304Z,0.61
2023-02-15T02:41:18.694Z,0.41
2023-02-15T02:42:30.277Z,0.59
2023-02-15T02:43:40.392Z,0.63
2023-02-15T02:44:44.923Z,0.66
2023-02-15T02:45:55.101Z,0.76
2023-02-15T02:47:03.313Z,0.81
2023-02-15T02:48:08.943Z,0.74
2023-02-15T02:49:13.506Z,0.77
2023-02-15T02:50:17.600Z,0.82
2023-02-15T02:51:23.329Z,0.79
2023-02-15T02:52:40.754Z,0.81
2023-02-15T02:53:43.298Z,0.87
2023-02-15T02:54:45.124Z,0.85
2023-02-15T02:55:52.693Z,0.72
2023-02-15T02:56:57.511Z,0.77
2023-02-15T02:58:08.063Z,0.80
2023-02-15T02:59:15.890Z,0.92
2023-02-15T03:00:20.773Z,0.83
2023-02-15T03:01:28.300Z,0.88
2023-02-15T03:02:36.247Z,1.08
2023-02-15T03:03:41.209Z,1.02
2023-02-15T03:04:50.120Z,0.95
2023-02-15T03:05:56.448Z,0.89
2023-02-15T03:07:04.840Z,0.68
2023-02-15T03:08:10.819Z,0.54
2023-02-15T03:09:22.574Z,0.81
2023-02-15T03:10:26.162Z,0.85
2023-02-15T03:11:29.060Z,0.65
2023-02-15T03:12:33.513Z,0.70
2023-02-15T03:13:37.267Z,0.70
2023-02-15T03:14:40.840Z,0.85
2023-02-15T03:16:04.100Z,0.69
2023-02-15T03:17:08.845Z,-0.12
2023-02-15T03:18:10.856Z,0.09
2023-02-15T03:19:17.538Z,0.28
2023-02-15T03:20:26.506Z,0.51
2023-02-15T03:21:35.854Z,0.76
2023-02-15T03:22:41.787Z,0.87
2023-02-15T03:23:44.755Z,0.93
2023-02-15T03:24:55.950Z,1.03
2023-02-15T03:26:00.295Z,1.11
2023-02-15T03:27:06.076Z,1.06
2023-02-15T03:28:11.530Z,1.27
2023-02-15T03:29:16.459Z,1.24
2023-02-15T03:30:21.815Z,1.34
2023-02-15T03:31:30.311Z,1.46
2023-02-15T03:32:34.434Z,1.44
2023-02-15T03:33:42.811Z,1.25
2023-02-15T03:34:45.135Z,1.19
2023-02-15T03:35:55.100Z,1.38
2023-02-15T03:37:07.843Z,1.41
2023-02-15T03:38:12.270Z,1.07
2023-02-15T03:39:21.027Z,0.58
2023-02-15T03:40:45.618Z,0.37
2023-02-15T03:41:55.838Z,0.33
2023-02-15T03:43:03.543Z,0.62
2023-02-15T03:44:13.892Z,0.75
2023-02-15T03:45:20.890Z,0.84
2023-02-15T03:46:29.006Z,0.60
2023-02-15T03:47:34.908Z,0.89
2023-02-15T03:48:42.584Z,0.52
2023-02-15T03:49:54.398Z,0.49
2023-02-15T03:51:20.474Z,0.85
2023-02-15T03:52:24.414Z,0.75
2023-02-15T03:53:30.009Z,0.67
2023-02-15T03:54:44.493Z,0.66
2023-02-15T03:55:48.757Z,0.77
2023-02-15T03:57:11.092Z,0.42
2023-02-15T03:58:31.491Z,0.32
2023-02-15T03:59:56.839Z,0.28
2023-02-15T04:01:19.477Z,0.56
2023-02-15T04:02:27.064Z,0.54
2023-02-15T04:03:34.971Z,0.56
2023-02-15T04:04:39.784Z,0.20
2023-02-15T04:05:42.759Z,0.11
2023-02-15T04:06:46.754Z,0.24
2023-02-15T04:07:48.520Z,0.45
2023-02-15T04:09:08.628Z,0.54
2023-02-15T04:10:29.494Z,0.63
2023-02-15T04:11:34.649Z,0.59
2023-02-15T04:12:36.267Z,0.54
2023-02-15T04:13:39.351Z,0.10
2023-02-15T04:14:59.667Z,-0.01
2023-02-15T04:16:04.664Z,0.23
2023-02-15T04:17:07.734Z,0.44
2023-02-15T04:18:12.164Z,0.62
2023-02-15T04:19:32.253Z,0.71
2023-02-15T04:20:53.281Z,0.62
2023-02-15T04:22:14.859Z,0.78
2023-02-15T04:23:35.313Z,0.73
2023-02-15T04:24:55.265Z,0.56
2023-02-15T04:25:57.914Z,0.35
2023-02-15T04:27:00.848Z,0.46
2023-02-15T04:28:03.494Z,0.59
2023-02-15T04:29:05.237Z,0.38
2023-02-15T04:30:09.349Z,0.64
2023-02-15T04:31:11.161Z,0.62
2023-02-15T04:32:13.845Z,0.59
2023-02-15T04:33:16.132Z,0.73
2023-02-15T04:34:18.950Z,0.78
2023-02-15T04:35:20.603Z,0.87
2023-02-15T04:36:23.314Z,0.76
2023-02-15T04:37:27.444Z,0.90
2023-02-15T04:38:29.136Z,0.97
2023-02-15T04:39:33.105Z,1.10
2023-02-15T04:40:35.773Z,1.04
2023-02-15T04:41:37.915Z,1.19
2023-02-15T04:42:40.508Z,0.98
2023-02-15T04:43:42.173Z,1.07
2023-02-15T04:44:44.892Z,1.13
2023-02-15T04:45:51.204Z,1.18
2023-02-15T04:46:53.401Z,0.96
2023-02-15T04:47:58.280Z,1.09
2023-02-15T04:48:59.975Z,0.97
2023-02-15T04:50:02.769Z,0.94
2023-02-15T04:51:06.593Z,0.73
2023-02-15T04:52:09.226Z,0.81
2023-02-15T04:53:12.420Z,0.55
2023-02-15T04:54:15.266Z,0.48
2023-02-15T04:55:17.063Z,0.55
2023-02-15T04:56:19.684Z,0.64
2023-02-15T04:57:21.462Z,0.79
2023-02-15T04:58:24.128Z,0.52
2023-02-15T04:59:25.853Z,0.63
2023-02-15T05:00:28.493Z,0.74
2023-02-15T05:01:33.248Z,0.83
2023-02-15T05:02:35.853Z,0.72
2023-02-15T05:03:38.384Z,0.59
2023-02-15T05:04:41.151Z,0.45
2023-02-15T05:05:43.660Z,0.37
2023-02-15T05:06:47.885Z,0.01
2023-02-15T05:07:49.887Z,-0.01
2023-02-15T05:08:53.978Z,-0.05
2023-02-15T05:09:55.955Z,-0.10
2023-02-15T05:10:58.809Z,-0.16
2023-02-15T05:12:00.619Z,0.18
2023-02-15T05:13:03.276Z,0.37
2023-02-15T05:14:05.276Z,0.11
2023-02-15T05:15:10.234Z,0.17
2023-02-15T05:16:12.298Z,0.17
2023-02-15T05:17:15.888Z,0.37
2023-02-15T05:18:18.407Z,0.43
2023-02-15T05:19:21.248Z,0.40
2023-02-15T05:20:22.841Z,0.54
2023-02-15T05:21:25.424Z,0.66
2023-02-15T05:22:27.019Z,0.74
2023-02-15T05:23:32.615Z,0.72
2023-02-15T05:24:54.025Z,0.60
2023-02-15T05:26:10.808Z,0.64
2023-02-15T05:27:31.478Z,0.73
2023-02-15T05:28:35.537Z,0.79
2023-02-15T05:29:37.218Z,0.62
2023-02-15T05:30:40.745Z,0.51
2023-02-15T05:31:43.122Z,0.22
2023-02-15T05:32:45.941Z,0.11
2023-02-15T05:33:47.742Z,0.28
2023-02-15T05:34:50.287Z,-0.13
2023-02-15T05:35:52.261Z,-0.09
2023-02-15T05:36:54.958Z,0.28
2023-02-15T05:37:57.567Z,0.51
2023-02-15T05:39:00.174Z,0.56
2023-02-15T05:40:03.776Z,0.31
2023-02-15T05:41:06.708Z,0.26
2023-02-15T05:42:08.303Z,0.30
2023-02-15T05:43:13.120Z,0.16
2023-02-15T05:44:15.036Z,0.29
2023-02-15T05:45:17.711Z,0.41
2023-02-15T05:46:19.318Z,0.15
2023-02-15T05:47:21.864Z,0.43
2023-02-15T05:48:25.533Z,0.74
2023-02-15T05:49:28.082Z,0.87
2023-02-15T05:50:29.728Z,0.86
2023-02-15T05:51:32.280Z,0.87
2023-02-15T05:52:33.964Z,0.93
2023-02-15T05:53:39.180Z,0.76
2023-02-15T05:54:40.785Z,0.88
2023-02-15T05:55:44.708Z,0.95
2023-02-15T05:56:46.216Z,0.75
2023-02-15T05:57:49.021Z,0.83
2023-02-15T05:58:50.702Z,0.46
2023-02-15T05:59:53.237Z,0.75
2023-02-15T06:00:54.957Z,0.90
2023-02-15T06:01:57.480Z,1.03
2023-02-15T06:02:59.100Z,1.08
2023-02-15T06:04:01.885Z,1.15
2023-02-15T06:05:04.567Z,1.35
2023-02-15T06:06:08.279Z,1.25
2023-02-15T06:07:09.882Z,1.31
2023-02-15T06:08:12.553Z,1.37
2023-02-15T06:09:14.999Z,1.02
2023-02-15T06:10:17.712Z,0.89
2023-02-15T06:11:20.952Z,0.79
2023-02-15T06:12:23.650Z,0.79
2023-02-15T06:13:25.276Z,0.94
2023-02-15T06:14:27.932Z,0.72
2023-02-15T06:15:29.868Z,0.78
2023-02-15T06:16:32.416Z,0.99
2023-02-15T06:17:34.209Z,0.98
2023-02-15T06:18:36.817Z,0.93
2023-02-15T06:19:38.355Z,1.13
2023-02-15T06:20:41.443Z,1.05
2023-02-15T06:21:44.089Z,1.15
2023-02-15T06:22:45.660Z,0.77
2023-02-15T06:23:48.344Z,0.84
2023-02-15T06:24:53.823Z,0.64
2023-02-15T06:25:55.357Z,0.81
2023-02-15T06:26:59.317Z,0.59
2023-02-15T06:28:00.942Z,0.82
2023-02-15T06:29:03.736Z,0.73
2023-02-15T06:30:06.892Z,0.33
2023-02-15T06:31:09.889Z,0.54
2023-02-15T06:32:11.803Z,0.38
2023-02-15T06:33:15.590Z,0.24
2023-02-15T06:34:17.507Z,0.17
2023-02-15T06:35:20.112Z,0.30
2023-02-15T06:36:21.675Z,0.10
2023-02-15T06:37:24.416Z,0.07
2023-02-15T06:38:26.018Z,0.17
2023-02-15T06:39:29.096Z,-0.07
2023-02-15T06:40:31.057Z,0.20
2023-02-15T06:41:33.636Z,0.08
2023-02-15T06:42:36.572Z,0.21
2023-02-15T06:43:40.971Z,0.12
2023-02-15T06:44:42.715Z,0.41
2023-02-15T06:45:45.332Z,0.37
2023-02-15T06:46:47.273Z,0.21
2023-02-15T06:47:49.900Z,0.28
2023-02-15T06:48:51.766Z,0.52
2023-02-15T06:49:54.367Z,0.48
2023-02-15T06:50:56.204Z,0.54
2023-02-15T06:51:58.821Z,0.38
2023-02-15T06:53:00.711Z,0.54
2023-02-15T06:54:03.323Z,0.71
2023-02-15T06:55:05.632Z,0.32
2023-02-15T06:56:10.298Z,0.43
2023-02-15T06:57:11.961Z,0.25
2023-02-15T06:58:18.050Z,0.33
2023-02-15T06:59:20.657Z,0.23
2023-02-15T07:00:24.181Z,0.30
2023-02-15T07:01:25.830Z,0.40
2023-02-15T07:02:28.487Z,0.60
2023-02-15T07:03:30.482Z,0.69
2023-02-15T07:04:33.184Z,0.57
2023-02-15T07:05:35.436Z,0.50
2023-02-15T07:06:37.976Z,0.49
2023-02-15T07:07:39.636Z,0.47
2023-02-15T07:08:42.268Z,0.75
2023-02-15T07:09:43.914Z,0.65
2023-02-15T07:10:46.519Z,0.59
2023-02-15T07:12:06.744Z,0.65
2023-02-15T07:13:08.302Z,0.90
2023-02-15T07:14:12.236Z,0.80
2023-02-15T07:15:16.431Z,0.92
2023-02-15T07:16:18.031Z,1.01
2023-02-15T07:17:35.620Z,1.10
2023-02-15T07:18:38.903Z,1.06
2023-02-15T07:19:40.504Z,1.21
2023-02-15T07:20:43.167Z,1.24
2023-02-15T07:21:46.461Z,1.38
2023-02-15T07:22:49.383Z,1.45
2023-02-15T07:23:51.069Z,1.50
2023-02-15T07:24:55.529Z,1.31
2023-02-15T07:25:59.190Z,1.45
2023-02-15T07:27:01.802Z,1.57
2023-02-15T07:28:06.128Z,1.48
2023-02-15T07:29:07.849Z,1.77
2023-02-15T07:30:14.152Z,1.84
2023-02-15T07:31:15.793Z,1.76
2023-02-15T07:32:18.388Z,1.72
2023-02-15T07:33:27.900Z,1.85
2023-02-15T07:34:30.422Z,1.97
2023-02-15T07:35:32.436Z,2.13
2023-02-15T07:36:35.083Z,2.15
2023-02-15T07:37:37.750Z,2.16
2023-02-15T07:38:42.169Z,2.02
2023-02-15T07:39:44.709Z,2.28
2023-02-15T07:40:46.548Z,2.11
2023-02-15T07:41:50.193Z,2.15
2023-02-15T07:42:54.399Z,2.02
2023-02-15T07:43:57.150Z,2.00
2023-02-15T07:44:58.795Z,2.13
2023-02-15T07:46:03.995Z,2.10
2023-02-15T07:47:06.236Z,2.18
2023-02-15T07:48:09.479Z,2.15
2023-02-15T07:49:11.099Z,1.81
2023-02-15T07:50:13.872Z,2.05
2023-02-15T07:51:17.249Z,2.17
2023-02-15T07:52:21.677Z,2.10
2023-02-15T07:53:23.424Z,2.38
2023-02-15T07:54:26.101Z,2.50
2023-02-15T07:55:27.744Z,2.62
2023-02-15T07:56:31.329Z,2.53
2023-02-15T07:57:35.005Z,2.66
2023-02-15T07:58:53.017Z,2.61
2023-02-15T07:59:56.041Z,2.67
2023-02-15T08:00:57.920Z,2.85
2023-02-15T08:02:02.002Z,2.88
2023-02-15T08:03:17.023Z,2.68
2023-02-15T08:04:24.813Z,2.72
2023-02-15T08:05:26.518Z,2.42
2023-02-15T08:06:30.514Z,2.63
2023-02-15T08:07:33.319Z,2.68
2023-02-15T08:08:36.384Z,2.82
2023-02-15T08:09:39.368Z,2.75
2023-02-15T08:10:59.738Z,2.74
2023-02-15T08:12:03.202Z,2.85
2023-02-15T08:13:04.759Z,2.86
2023-02-15T08:14:09.653Z,2.47
2023-02-15T08:15:11.226Z,2.25
2023-02-15T08:16:15.415Z,2.35
2023-02-15T08:17:19.322Z,2.46
2023-02-15T08:18:20.974Z,2.39
2023-02-15T08:19:25.876Z,2.49
2023-02-15T08:20:27.685Z,2.67
2023-02-15T08:21:31.778Z,2.70
2023-02-15T08:22:34.745Z,2.74
2023-02-15T08:23:36.408Z,2.72
2023-02-15T08:24:39.551Z,2.85
2023-02-15T08:25:41.120Z,2.89
2023-02-15T08:26:45.960Z,3.02
2023-02-15T08:27:48.804Z,2.65
2023-02-15T08:28:51.787Z,2.53
2023-02-15T08:29:54.564Z,2.44
2023-02-15T08:30:56.219Z,2.37
2023-02-15T08:32:04.358Z,2.18
2023-02-15T08:33:07.349Z,2.34
2023-02-15T08:34:11.446Z,2.06
2023-02-15T08:35:14.142Z,2.33
2023-02-15T08:36:17.611Z,2.48
2023-02-15T08:37:20.137Z,2.49
2023-02-15T08:38:21.741Z,2.74
2023-02-15T08:39:26.166Z,2.93
2023-02-15T08:40:27.989Z,3.06
2023-02-15T08:41:33.301Z,3.10
2023-02-15T08:42:35.159Z,2.93
2023-02-15T08:43:37.695Z,3.08
2023-02-15T08:44:40.630Z,3.00
2023-02-15T08:45:42.705Z,3.05
2023-02-15T08:46:46.975Z,2.97
2023-02-15T08:47:49.532Z,2.94
2023-02-15T08:48:53.768Z,2.95
2023-02-15T08:49:56.916Z,3.04
2023-02-15T08:50:58.569Z,3.10
2023-02-15T08:52:01.631Z,3.28
2023-02-15T08:53:03.145Z,3.39
2023-02-15T08:54:08.225Z,3.44
2023-02-15T08:55:10.792Z,3.57
2023-02-15T08:56:13.032Z,3.48
2023-02-15T08:57:15.679Z,3.37
2023-02-15T08:58:17.231Z,3.28
2023-02-15T08:59:22.422Z,3.44
2023-02-15T09:00:24.208Z,3.19
2023-02-15T09:01:29.003Z,3.28
2023-02-15T09:02:30.657Z,3.23
2023-02-15T09:03:33.638Z,3.26
2023-02-15T09:04:37.778Z,3.26
2023-02-15T09:05:39.665Z,3.22
2023-02-15T09:06:44.035Z,3.36
2023-02-15T09:07:45.757Z,3.44
2023-02-15T09:08:48.447Z,3.49
2023-02-15T09:09:50.964Z,3.58
2023-02-15T09:10:52.571Z,3.48
2023-02-15T09:11:59.269Z,3.77
2023-02-15T09:13:01.199Z,3.69
2023-02-15T09:14:06.514Z,3.66
2023-02-15T09:15:08.655Z,3.59
2023-02-15T09:16:11.809Z,3.61
2023-02-15T09:17:16.106Z,3.54
2023-02-15T09:18:18.096Z,3.63
2023-02-15T09:19:23.059Z,3.81
2023-02-15T09:20:26.133Z,3.77
2023-02-15T09:21:29.160Z,3.97
2023-02-15T09:22:35.102Z,3.88
2023-02-15T09:23:38.351Z,3.84
2023-02-15T09:24:40.927Z,3.89
2023-02-15T09:25:43.520Z,3.99
2023-02-15T09:26:48.099Z,4.06
2023-02-15T09:27:49.711Z,4.13
2023-02-15T09:28:56.463Z,4.35
2023-02-15T09:29:59.052Z,4.19
2023-02-15T09:31:10.569Z,4.42
2023-02-15T09:32:16.018Z,4.44
2023-02-15T09:33:17.627Z,4.43
2023-02-15T09:34:22.852Z,4.34
2023-02-15T09:35:26.070Z,4.44
2023-02-15T09:36:34.176Z,4.37
2023-02-15T09:37:36.180Z,4.35
2023-02-15T09:38:38.925Z,4.38
2023-02-15T09:39:44.687Z,4.46
2023-02-15T09:41:03.697Z,4.60
2023-02-15T09:42:27.321Z,4.34
2023-02-15T09:43:41.296Z,4.36
2023-02-15T09:45:05.748Z,4.33
2023-02-15T09:46:24.465Z,4.52
2023-02-15T09:47:46.100Z,4.61
2023-02-15T09:48:55.324Z,4.56
2023-02-15T09:50:03.831Z,4.44
2023-02-15T09:51:45.235Z,4.50
2023-02-15T09:53:00.297Z,4.76
2023-02-15T09:54:12.471Z,4.77
2023-02-15T09:55:32.435Z,4.77
2023-02-15T09:56:41.227Z,4.81
2023-02-15T09:57:52.261Z,4.82
2023-02-15T09:59:04.913Z,4.85
2023-02-15T10:00:20.389Z,4.91
2023-02-15T10:01:35.836Z,4.95
2023-02-15T10:02:55.345Z,5.03
2023-02-15T10:04:13.886Z,5.00
2023-02-15T10:05:33.320Z,4.82
2023-02-15T10:06:43.089Z,5.13
2023-02-15T10:08:17.648Z,5.28
2023-02-15T10:09:44.581Z,5.14
2023-02-15T10:10:58.126Z,5.19
2023-02-15T10:12:17.987Z,5.26
2023-02-15T10:13:34.022Z,5.33
2023-02-15T10:15:01.772Z,5.43
2023-02-15T10:16:19.020Z,5.65
2023-02-15T10:17:39.384Z,5.76
2023-02-15T10:18:55.094Z,6.06
2023-02-15T10:20:12.029Z,6.09
2023-02-15T10:21:25.096Z,6.22
2023-02-15T10:22:38.589Z,6.34
2023-02-15T10:24:03.578Z,6.59
2023-02-15T10:25:19.357Z,6.82
2023-02-15T10:26:24.140Z,7.07
2023-02-15T10:27:28.205Z,7.11
2023-02-15T10:28:44.025Z,7.06
2023-02-15T10:29:56.740Z,7.10
2023-02-15T10:31:09.772Z,7.40
2023-02-15T10:32:24.810Z,7.50
2023-02-15T10:33:40.516Z,7.99
2023-02-15T10:34:52.576Z,8.51
2023-02-15T10:36:06.862Z,8.71
2023-02-15T10:37:30.459Z,9.80
2023-02-15T10:38:39.836Z,10.41
2023-02-15T10:39:52.775Z,11.44
2023-02-15T10:41:10.812Z,11.80
2023-02-15T10:42:22.733Z,12.32
2023-02-15T10:43:41.765Z,13.08
2023-02-15T10:45:00.986Z,14.13
2023-02-15T10:46:13.359Z,14.78
2023-02-15T10:47:35.136Z,14.57
2023-02-15T10:48:54.632Z,14.44
2023-02-15T10:50:11.064Z,15.45
2023-02-15T10:51:21.275Z,16.21
2023-02-15T10:52:38.162Z,16.80
2023-02-15T10:54:04.297Z,15.99
2023-02-15T10:55:15.241Z,16.11
2023-02-15T10:56:25.969Z,16.27
2023-02-15T10:57:36.687Z,16.38
2023-02-15T10:58:53.159Z,16.21
2023-02-15T11:00:07.973Z,15.68
2023-02-15T11:01:21.046Z,15.76
2023-02-15T11:02:35.083Z,16.22
2023-02-15T11:03:58.453Z,16.62
2023-02-15T11:05:16.251Z,16.83
2023-02-15T11:06:21.721Z,17.73
2023-02-15T11:07:27.802Z,18.20
2023-02-15T11:08:34.562Z,17.84
2023-02-15T11:09:43.136Z,17.18
2023-02-15T11:10:52.502Z,16.45
2023-02-15T11:11:58.223Z,16.05
2023-02-15T11:13:07.512Z,16.23
2023-02-15T11:14:17.463Z,17.77
2023-02-15T11:15:25.769Z,18.04
2023-02-15T11:16:33.784Z,19.31
2023-02-15T11:17:41.299Z,20.04
2023-02-15T11:18:49.632Z,18.09
2023-02-15T11:19:59.144Z,18.47
2023-02-15T11:21:08.009Z,18.97
2023-02-15T11:22:12.613Z,18.31
2023-02-15T11:23:19.393Z,18.61
2023-02-15T11:24:22.719Z,18.87
2023-02-15T11:25:29.680Z,17.89
2023-02-15T11:26:38.424Z,18.63
2023-02-15T11:27:41.214Z,18.15
2023-02-15T11:28:49.520Z,18.95
2023-02-15T11:29:59.413Z,19.72
2023-02-15T11:31:13.188Z,18.46
2023-02-15T11:32:22.153Z,15.22
2023-02-15T11:33:29.908Z,16.87
2023-02-15T11:34:38.321Z,17.20
2023-02-15T11:35:49.817Z,17.80
2023-02-15T11:36:57.146Z,18.04
2023-02-15T11:38:06.247Z,17.26
2023-02-15T11:39:13.252Z,18.54
2023-02-15T11:40:23.143Z,19.41
2023-02-15T11:41:30.434Z,17.05
2023-02-15T11:42:34.432Z,16.65
2023-02-15T11:43:42.124Z,16.18
2023-02-15T11:44:56.280Z,16.09
2023-02-15T11:45:58.999Z,17.42
2023-02-15T11:47:04.540Z,16.88
2023-02-15T11:48:11.702Z,16.40
2023-02-15T11:49:24.478Z,16.42
2023-02-15T11:50:29.674Z,18.04
2023-02-15T11:51:32.237Z,16.89
2023-02-15T11:52:34.803Z,17.28
2023-02-15T11:53:40.497Z,18.90
2023-02-15T11:54:45.117Z,19.77
2023-02-15T11:55:49.483Z,18.56
2023-02-15T11:56:51.349Z,16.23
2023-02-15T11:57:58.654Z,17.21
2023-02-15T11:59:08.213Z,19.44
2023-02-15T12:00:18.038Z,20.83
2023-02-15T12:01:25.652Z,22.32
2023-02-15T12:02:31.121Z,22.45
2023-02-15T12:03:46.603Z,23.05
2023-02-15T12:04:54.826Z,23.66
2023-02-15T12:06:03.461Z,23.94
2023-02-15T12:07:16.188Z,24.41
2023-02-15T12:08:21.978Z,24.88
2023-02-15T12:09:33.846Z,24.51
2023-02-15T12:10:42.074Z,22.11
2023-02-15T12:11:44.646Z,22.94
2023-02-15T12:12:46.399Z,23.67
2023-02-15T12:13:58.586Z,24.45
2023-02-15T12:15:01.956Z,24.63
2023-02-15T12:16:11.477Z,24.99
2023-02-15T12:17:15.447Z,24.77
2023-02-15T12:18:36.909Z,23.76
2023-02-15T12:19:41.396Z,24.69
2023-02-15T12:20:45.034Z,25.56
2023-02-15T12:21:53.352Z,25.44
2023-02-15T12:23:03.011Z,25.68
2023-02-15T12:24:17.705Z,26.06
2023-02-15T12:25:24.713Z,26.22
2023-02-15T12:26:29.136Z,25.49
2023-02-15T12:27:34.045Z,25.99
2023-02-15T12:28:40.714Z,25.92
2023-02-15T12:29:48.096Z,26.31
2023-02-15T12:30:50.890Z,26.16
2023-02-15T12:31:54.644Z,25.53
2023-02-15T12:33:00.905Z,24.49
2023-02-15T12:34:11.503Z,20.35
2023-02-15T12:35:23.054Z,21.58
2023-02-15T12:36:29.328Z,24.13
2023-02-15T12:37:35.610Z,24.41
2023-02-15T12:38:37.347Z,24.75
2023-02-15T12:39:53.556Z,26.70
2023-02-15T12:41:00.929Z,26.25
2023-02-15T12:42:06.699Z,27.64
2023-02-15T12:43:27.120Z,28.02
2023-02-15T12:44:31.244Z,27.21
2023-02-15T12:45:36.420Z,24.47
2023-02-15T12:46:38.437Z,24.23
2023-02-15T12:47:41.019Z,24.08
2023-02-15T12:48:43.025Z,24.78
2023-02-15T12:49:48.088Z,24.35
2023-02-15T12:50:55.432Z,25.63
2023-02-15T12:52:00.208Z,26.48
2023-02-15T12:53:09.336Z,27.02
2023-02-15T12:54:23.294Z,26.50
2023-02-15T12:55:30.493Z,26.09
2023-02-15T12:56:33.269Z,25.53
2023-02-15T12:57:36.074Z,26.63
2023-02-15T12:58:39.669Z,26.34
2023-02-15T12:59:49.293Z,27.54
2023-02-15T13:01:06.159Z,27.90
2023-02-15T13:02:17.702Z,25.55
2023-02-15T13:03:24.933Z,25.45
2023-02-15T13:04:28.368Z,25.47
2023-02-15T13:05:36.173Z,25.71
2023-02-15T13:06:38.018Z,25.11
2023-02-15T13:07:40.566Z,24.71
2023-02-15T13:08:51.417Z,26.03
2023-02-15T13:09:54.291Z,26.59
2023-02-15T13:11:00.474Z,27.54
2023-02-15T13:12:12.441Z,27.50
2023-02-15T13:13:22.796Z,27.33
2023-02-15T13:14:32.513Z,28.25
2023-02-15T13:15:39.312Z,28.99
2023-02-15T13:16:46.109Z,28.26
2023-02-15T13:17:49.571Z,28.67
2023-02-15T13:18:54.030Z,28.94
2023-02-15T13:19:59.603Z,26.49
2023-02-15T13:21:11.641Z,27.07
2023-02-15T13:22:18.954Z,28.14
2023-02-15T13:23:31.843Z,28.68
2023-02-15T13:24:40.598Z,26.98
2023-02-15T13:25:51.161Z,27.96
2023-02-15T13:27:01.011Z,26.21
2023-02-15T13:28:16.763Z,24.32
2023-02-15T13:29:24.485Z,23.66
2023-02-15T13:30:30.096Z,25.63
2023-02-15T13:31:34.390Z,24.73
2023-02-15T13:32:41.870Z,25.51
2023-02-15T13:33:48.477Z,26.66
2023-02-15T13:34:50.088Z,27.49
2023-02-15T13:36:00.149Z,27.54
2023-02-15T13:37:10.292Z,28.02
2023-02-15T13:38:33.337Z,28.35
2023-02-15T13:39:41.019Z,28.63
2023-02-15T13:40:51.282Z,28.24
2023-02-15T13:42:01.708Z,27.09
2023-02-15T13:43:13.700Z,27.57
2023-02-15T13:44:27.699Z,28.20
2023-02-15T13:45:41.922Z,28.95
2023-02-15T13:46:54.234Z,29.97
2023-02-15T13:48:07.866Z,29.65
2023-02-15T13:49:20.907Z,29.59
2023-02-15T13:50:36.567Z,30.09
2023-02-15T13:51:46.186Z,30.50
2023-02-15T13:52:56.869Z,30.87
2023-02-15T13:54:04.265Z,29.83
2023-02-15T13:55:40.327Z,30.24
2023-02-15T13:56:55.675Z,30.27
2023-02-15T13:58:27.138Z,29.74
2023-02-15T13:59:49.106Z,30.06
2023-02-15T14:01:06.173Z,30.11
2023-02-15T14:02:31.834Z,31.04
2023-02-15T14:04:06.213Z,30.86
2023-02-15T14:05:26.919Z,31.62
2023-02-15T14:06:42.747Z,31.26
2023-02-15T14:07:56.867Z,31.40
2023-02-15T14:09:13.508Z,31.60
2023-02-15T14:10:34.034Z,31.84
2023-02-15T14:11:46.498Z,31.48
2023-02-15T14:13:02.971Z,30.94
2023-02-15T14:14:34.077Z,30.56
2023-02-15T14:15:46.667Z,30.73
2023-02-15T14:17:06.693Z,31.51
2023-02-15T14:18:24.261Z,31.35
2023-02-15T14:19:37.312Z,31.15
2023-02-15T14:20:51.062Z,30.91
2023-02-15T14:22:02.977Z,30.55
2023-02-15T14:23:13.698Z,30.92
2023-02-15T14:24:27.053Z,30.96
2023-02-15T14:25:35.922Z,30.97
2023-02-15T14:26:47.963Z,31.42
2023-02-15T14:28:00.404Z,31.08
2023-02-15T14:29:13.924Z,30.95
2023-02-15T14:30:22.557Z,31.39
2023-02-15T14:31:31.195Z,29.46
2023-02-15T14:32:42.422Z,28.37
2023-02-15T14:33:54.813Z,28.26
2023-02-15T14:35:01.132Z,26.90
2023-02-15T14:36:07.320Z,27.20
2023-02-15T14:37:12.960Z,28.14
2023-02-15T14:38:23.547Z,28.22
2023-02-15T14:39:51.465Z,27.68
2023-02-15T14:41:04.957Z,27.92
2023-02-15T14:42:16.500Z,28.07
2023-02-15T14:43:29.993Z,27.56
2023-02-15T14:44:39.575Z,28.25
2023-02-15T14:45:50.446Z,28.56